Time;durP1;ratioP1;P1;durP2;ratioP2;P2;SDS_P1;SDS_P2;PMS_P1;PMS_P2;Temp;Humidity;BMP_temperature;BMP_pressure;BME280_temperature;BME280_humidity;BME280_pressure;Samples;Min_cycle;Max_cycle;Signal;HPM_P1;HPM_P2
2022/07/09 00:01:35;;;;;;;;;;;23.80;61.20;;;;;;5076334;28;19913;-79
2022/07/09 00:04:01;;;;;;;;;;;23.80;61.10;;;;;;5075657;28;20424;-78
2022/07/09 00:06:26;;;;;;;;;;;23.80;62.20;;;;;;5075566;28;19909;-78
2022/07/09 00:08:52;;;;;;;;;;;23.70;61.50;;;;;;5075749;28;19909;-79
2022/07/09 00:11:18;;;;;;;;;;;23.80;62.10;;;;;;5076155;28;19939;-79
2022/07/09 00:13:43;;;;;;;;;;;23.70;62.20;;;;;;5057515;28;19908;-79
2022/07/09 00:16:08;;;;;;;;;;;23.70;62.00;;;;;;5075469;28;20275;-79
2022/07/09 00:18:34;;;;;;;;;;;23.60;63.30;;;;;;5075973;28;19909;-79
2022/07/09 00:21:00;;;;;;;;;;;23.60;63.00;;;;;;5075361;28;19940;-79
2022/07/09 00:23:25;;;;;;;;;;;23.60;63.10;;;;;;5075581;28;19923;-78
2022/07/09 00:25:52;;;;;;;;;;;23.40;64.00;;;;;;5075388;28;19917;-79
2022/07/09 00:28:18;;;;;;;;;;;23.30;63.00;;;;;;5075089;28;19913;-79
2022/07/09 00:30:43;;;;;;;;;;;23.20;64.00;;;;;;5075449;28;19915;-78
2022/07/09 00:33:09;;;;;;;;;;;23.20;64.70;;;;;;5075444;28;19915;-78
2022/07/09 00:35:34;;;;;;;;;;;23.10;65.30;;;;;;5074971;28;19908;-78
2022/07/09 00:38:00;;;;;;;;;;;23.20;63.70;;;;;;5048684;28;19920;-78
2022/07/09 00:40:25;;;;;;;;;;;23.20;63.70;;;;;;5055073;28;19917;-78
2022/07/09 00:42:51;;;;;;;;;;;23.30;65.50;;;;;;5054653;28;19924;-79
2022/07/09 00:45:17;;;;;;;;;;;23.20;65.90;;;;;;5055460;28;19913;-79
2022/07/09 00:47:43;;;;;;;;;;;23.10;65.10;;;;;;5055243;28;19916;-79
2022/07/09 00:50:09;;;;;;;;;;;23.00;66.00;;;;;;5053039;28;19915;-81
2022/07/09 00:52:35;;;;;;;;;;;23.00;64.90;;;;;;5036979;28;19912;-79
2022/07/09 00:55:01;;;;;;;;;;;22.80;66.50;;;;;;5055038;28;20669;-79
2022/07/09 00:57:27;;;;;;;;;;;22.70;65.90;;;;;;5054667;28;20278;-78
2022/07/09 00:59:53;;;;;;;;;;;22.70;66.10;;;;;;5054780;28;19916;-78
2022/07/09 01:02:20;;;;;;;;;;;22.70;65.40;;;;;;5054108;28;19912;-78
2022/07/09 01:04:46;;;;;;;;;;;22.60;65.10;;;;;;5054941;28;19921;-79
2022/07/09 01:07:11;;;;;;;;;;;22.70;65.20;;;;;;5054426;28;19916;-79
2022/07/09 01:09:38;;;;;;;;;;;22.60;65.50;;;;;;5054869;28;19952;-79
2022/07/09 01:12:04;;;;;;;;;;;22.70;64.40;;;;;;5054137;28;20270;-78
2022/07/09 01:14:30;;;;;;;;;;;22.70;64.60;;;;;;5054624;28;19916;-78
2022/07/09 01:17:03;;;;;;;;;;;22.80;64.50;;;;;;5036787;28;19908;-78
2022/07/09 01:19:29;;;;;;;;;;;22.90;64.60;;;;;;5054081;28;20321;-79
2022/07/09 01:21:55;;;;;;;;;;;22.90;64.30;;;;;;5054231;28;19908;-78
2022/07/09 01:24:21;;;;;;;;;;;23.10;64.00;;;;;;5053979;28;19916;-78
2022/07/09 01:26:47;;;;;;;;;;;23.10;64.00;;;;;;5054066;28;19920;-78
2022/07/09 01:29:12;;;;;;;;;;;23.10;63.40;;;;;;5054489;28;20000;-78
2022/07/09 01:31:38;;;;;;;;;;;23.20;63.80;;;;;;5054099;28;19995;-78
2022/07/09 01:34:03;;;;;;;;;;;23.20;63.40;;;;;;5053660;28;20000;-78
2022/07/09 01:36:29;;;;;;;;;;;23.20;63.50;;;;;;5053945;28;19995;-78
2022/07/09 01:38:54;;;;;;;;;;;23.20;63.10;;;;;;5036504;28;20358;-78
2022/07/09 01:41:20;;;;;;;;;;;23.20;63.30;;;;;;5053751;28;20359;-79
2022/07/09 01:43:45;;;;;;;;;;;23.20;63.30;;;;;;5052872;28;20327;-78
2022/07/09 01:46:11;;;;;;;;;;;23.20;64.40;;;;;;5053881;28;20314;-78
2022/07/09 01:48:38;;;;;;;;;;;23.20;63.40;;;;;;5035767;28;19935;-78
2022/07/09 01:51:04;;;;;;;;;;;23.10;63.90;;;;;;5053469;28;19931;-79
2022/07/09 01:53:29;;;;;;;;;;;23.10;63.40;;;;;;5053932;28;19909;-78
2022/07/09 01:55:55;;;;;;;;;;;23.10;63.40;;;;;;5053455;28;19909;-78
2022/07/09 01:58:21;;;;;;;;;;;23.20;63.60;;;;;;5035812;28;19909;-77
2022/07/09 02:00:46;;;;;;;;;;;23.10;63.70;;;;;;5053583;28;20271;-78
2022/07/09 02:03:12;;;;;;;;;;;23.00;64.50;;;;;;5053228;28;19921;-78
2022/07/09 02:05:38;;;;;;;;;;;23.00;64.90;;;;;;5053574;28;19999;-78
2022/07/09 02:08:03;;;;;;;;;;;22.90;65.70;;;;;;5053333;28;19909;-78
2022/07/09 02:10:30;;;;;;;;;;;22.90;64.20;;;;;;5053428;28;19909;-80
2022/07/09 02:12:55;;;;;;;;;;;22.80;64.90;;;;;;5054284;28;19955;-79
2022/07/09 02:15:21;;;;;;;;;;;22.80;66.10;;;;;;5055652;28;19909;-78
2022/07/09 02:17:47;;;;;;;;;;;22.70;66.50;;;;;;5053130;28;20028;-79
2022/07/09 02:20:13;;;;;;;;;;;22.60;65.10;;;;;;5035288;28;20378;-79
2022/07/09 02:22:38;;;;;;;;;;;22.60;67.40;;;;;;5035880;28;19995;-79
2022/07/09 02:25:04;;;;;;;;;;;22.60;65.30;;;;;;5053325;28;20417;-78
2022/07/09 02:27:30;;;;;;;;;;;22.70;65.60;;;;;;5053260;28;19934;-78
2022/07/09 02:29:55;;;;;;;;;;;22.70;66.00;;;;;;5053472;28;19915;-79
2022/07/09 02:32:21;;;;;;;;;;;22.70;65.80;;;;;;5053426;28;19908;-78
2022/07/09 02:34:46;;;;;;;;;;;22.60;66.60;;;;;;5053031;28;19917;-78
2022/07/09 02:37:12;;;;;;;;;;;22.60;66.10;;;;;;5055357;28;19916;-78
2022/07/09 02:39:37;;;;;;;;;;;22.60;68.20;;;;;;5073915;28;19915;-79
2022/07/09 02:42:03;;;;;;;;;;;22.50;67.40;;;;;;5072774;28;20412;-83
2022/07/09 02:44:29;;;;;;;;;;;22.50;67.50;;;;;;5073546;28;20007;-84
2022/07/09 02:46:54;;;;;;;;;;;22.50;66.40;;;;;;5073334;28;20011;-79
2022/07/09 02:49:21;;;;;;;;;;;22.60;67.30;;;;;;5072780;28;20325;-79
2022/07/09 02:51:47;;;;;;;;;;;22.60;66.90;;;;;;5073193;28;19908;-78
2022/07/09 02:54:12;;;;;;;;;;;22.70;67.30;;;;;;5073019;28;19963;-79
2022/07/09 02:56:38;;;;;;;;;;;22.70;66.40;;;;;;5055056;28;19908;-79
2022/07/09 02:59:03;;;;;;;;;;;22.80;66.70;;;;;;5073162;28;19908;-79
2022/07/09 03:01:29;;;;;;;;;;;22.90;67.30;;;;;;5073142;28;19910;-81
2022/07/09 03:03:55;;;;;;;;;;;22.90;67.90;;;;;;5072661;28;20016;-79
2022/07/09 03:06:20;;;;;;;;;;;23.00;65.80;;;;;;5072713;28;19916;-79
2022/07/09 03:08:46;;;;;;;;;;;22.90;67.50;;;;;;5073116;28;19923;-79
2022/07/09 03:11:11;;;;;;;;;;;22.80;69.20;;;;;;5072984;28;20047;-79
2022/07/09 03:13:37;;;;;;;;;;;22.70;68.10;;;;;;5075002;28;19908;-79
2022/07/09 03:16:03;;;;;;;;;;;22.50;68.20;;;;;;5076533;28;19909;-78
2022/07/09 03:18:28;;;;;;;;;;;22.40;69.10;;;;;;5076332;28;19954;-79
2022/07/09 03:20:54;;;;;;;;;;;22.30;69.30;;;;;;5058693;28;19909;-79
2022/07/09 03:23:20;;;;;;;;;;;22.30;68.30;;;;;;5078373;28;19916;-78
2022/07/09 03:25:45;;;;;;;;;;;22.40;68.60;;;;;;5076613;28;20097;-78
2022/07/09 03:28:11;;;;;;;;;;;22.50;69.10;;;;;;5076591;28;19974;-75
2022/07/09 03:30:36;;;;;;;;;;;22.60;68.60;;;;;;5076539;28;19966;-78
2022/07/09 03:33:02;;;;;;;;;;;22.60;69.80;;;;;;5057958;28;19923;-78
2022/07/09 03:35:27;;;;;;;;;;;22.60;69.40;;;;;;5076669;28;19982;-78
2022/07/09 03:37:53;;;;;;;;;;;22.60;67.60;;;;;;5076499;28;19963;-79
2022/07/09 03:40:19;;;;;;;;;;;22.70;68.30;;;;;;5075674;28;19913;-80
2022/07/09 03:42:44;;;;;;;;;;;22.90;67.20;;;;;;5076342;28;19908;-79
2022/07/09 03:45:10;;;;;;;;;;;22.90;67.60;;;;;;5076414;28;19948;-79
2022/07/09 03:47:35;;;;;;;;;;;22.90;68.10;;;;;;5075861;28;20351;-79
2022/07/09 03:50:01;;;;;;;;;;;23.00;67.60;;;;;;5076959;28;20278;-79
2022/07/09 03:52:26;;;;;;;;;;;22.90;67.80;;;;;;5076598;28;20320;-80
2022/07/09 03:54:52;;;;;;;;;;;22.90;67.60;;;;;;5075989;28;19975;-80
2022/07/09 03:57:18;;;;;;;;;;;22.90;67.00;;;;;;5076209;28;19908;-80
2022/07/09 03:59:43;;;;;;;;;;;22.90;67.30;;;;;;5076133;28;19912;-79
2022/07/09 04:02:09;;;;;;;;;;;22.90;67.20;;;;;;5075344;28;19963;-78
2022/07/09 04:04:34;;;;;;;;;;;22.90;67.50;;;;;;5075685;28;19921;-80
2022/07/09 04:07:00;;;;;;;;;;;23.00;68.10;;;;;;5075938;28;19908;-80
2022/07/09 04:09:25;;;;;;;;;;;23.00;67.60;;;;;;5057821;28;19916;-79
2022/07/09 04:11:51;;;;;;;;;;;22.90;68.20;;;;;;5075718;28;19909;-80
2022/07/09 04:14:19;;;;;;;;;;;22.90;68.70;;;;;;5075427;28;20321;-80
2022/07/09 04:16:45;;;;;;;;;;;22.90;67.80;;;;;;5075063;28;20381;-79
2022/07/09 04:19:10;;;;;;;;;;;22.90;68.00;;;;;;5074195;28;19908;-80
2022/07/09 04:21:36;;;;;;;;;;;22.90;67.80;;;;;;5075568;28;19913;-79
2022/07/09 04:24:02;;;;;;;;;;;22.80;68.20;;;;;;5074646;28;19916;-78
2022/07/09 04:26:27;;;;;;;;;;;22.90;68.50;;;;;;5075519;28;20366;-78
2022/07/09 04:28:53;;;;;;;;;;;23.00;68.30;;;;;;5075313;28;19955;-78
2022/07/09 04:31:21;;;;;;;;;;;23.00;68.20;;;;;;5075028;28;19908;-79
2022/07/09 04:33:46;;;;;;;;;;;23.00;68.20;;;;;;5076534;28;19954;-79
2022/07/09 04:36:12;;;;;;;;;;;23.00;67.40;;;;;;5075655;28;19908;-80
2022/07/09 04:38:37;;;;;;;;;;;23.00;68.20;;;;;;5043093;28;20466;-79
2022/07/09 04:41:04;;;;;;;;;;;23.10;67.40;;;;;;5037632;28;20322;-79
2022/07/09 04:43:30;;;;;;;;;;;23.20;67.30;;;;;;5055069;28;19916;-79
2022/07/09 04:45:56;;;;;;;;;;;23.30;66.70;;;;;;5054915;28;20165;-78
2022/07/09 04:48:21;;;;;;;;;;;23.40;66.60;;;;;;5054689;28;19912;-79
2022/07/09 04:50:47;;;;;;;;;;;23.50;66.10;;;;;;5054595;28;19909;-78
2022/07/09 04:53:12;;;;;;;;;;;23.50;65.70;;;;;;5054215;28;19909;-79
2022/07/09 04:55:38;;;;;;;;;;;23.50;65.20;;;;;;5055179;28;19936;-79
2022/07/09 04:58:03;;;;;;;;;;;23.50;65.40;;;;;;5054565;28;19916;-78
2022/07/09 05:00:29;;;;;;;;;;;23.50;65.30;;;;;;5054530;28;19916;-79
2022/07/09 05:02:55;;;;;;;;;;;23.40;64.90;;;;;;5054412;28;20019;-79
2022/07/09 05:05:23;;;;;;;;;;;23.40;65.00;;;;;;5054533;28;19958;-79
2022/07/09 05:07:48;;;;;;;;;;;23.40;65.00;;;;;;5036542;28;19909;-79
2022/07/09 05:10:14;;;;;;;;;;;23.30;65.20;;;;;;5053971;28;19909;-78
2022/07/09 05:12:40;;;;;;;;;;;23.40;65.20;;;;;;5054856;28;20035;-80
2022/07/09 05:15:05;;;;;;;;;;;23.30;65.20;;;;;;5054416;28;19944;-79
2022/07/09 05:17:34;;;;;;;;;;;23.20;65.40;;;;;;5054560;28;20015;-77
2022/07/09 05:20:00;;;;;;;;;;;23.20;65.40;;;;;;5054421;28;19915;-79
2022/07/09 05:22:26;;;;;;;;;;;23.30;65.20;;;;;;5054431;28;19928;-79
2022/07/09 05:24:51;;;;;;;;;;;23.40;65.00;;;;;;5054101;28;19917;-79
2022/07/09 05:27:17;;;;;;;;;;;23.40;64.80;;;;;;5054835;28;19909;-77
2022/07/09 05:29:42;;;;;;;;;;;23.60;64.70;;;;;;5054329;28;20015;-78
2022/07/09 05:32:08;;;;;;;;;;;23.70;64.30;;;;;;5053322;28;20260;-77
2022/07/09 05:34:34;;;;;;;;;;;23.80;64.00;;;;;;5054538;28;20283;-80
2022/07/09 05:36:59;;;;;;;;;;;23.80;63.70;;;;;;5053982;28;19909;-79
2022/07/09 05:39:25;;;;;;;;;;;23.90;63.70;;;;;;5073558;28;20352;-79
2022/07/09 05:41:50;;;;;;;;;;;23.90;63.60;;;;;;5073781;28;19991;-78
2022/07/09 05:44:16;;;;;;;;;;;24.00;63.40;;;;;;5057737;28;19984;-79
2022/07/09 05:46:41;;;;;;;;;;;24.00;63.20;;;;;;5074167;28;19917;-78
2022/07/09 05:49:07;;;;;;;;;;;23.90;63.10;;;;;;5073901;28;19912;-78
2022/07/09 05:51:33;;;;;;;;;;;23.80;63.20;;;;;;5073621;28;19908;-78
2022/07/09 05:53:59;;;;;;;;;;;23.80;63.40;;;;;;5073223;28;19908;-78
2022/07/09 05:56:24;;;;;;;;;;;23.80;63.40;;;;;;5073808;28;20298;-78
2022/07/09 05:58:50;;;;;;;;;;;23.80;63.50;;;;;;5074097;28;19908;-80
2022/07/09 06:01:16;;;;;;;;;;;23.80;63.50;;;;;;5055253;28;19972;-79
2022/07/09 06:03:42;;;;;;;;;;;23.80;63.40;;;;;;5073833;28;19923;-77
2022/07/09 06:06:08;;;;;;;;;;;23.90;63.50;;;;;;5073339;28;19909;-78
2022/07/09 06:08:34;;;;;;;;;;;23.90;63.50;;;;;;5073331;28;19916;-77
2022/07/09 06:11:00;;;;;;;;;;;23.90;63.50;;;;;;5073631;28;19983;-78
2022/07/09 06:13:25;;;;;;;;;;;23.90;63.40;;;;;;5073578;28;19909;-78
2022/07/09 06:15:51;;;;;;;;;;;24.00;63.40;;;;;;5073709;28;19920;-79
2022/07/09 06:18:17;;;;;;;;;;;24.10;63.30;;;;;;5055265;28;19912;-78
2022/07/09 06:20:42;;;;;;;;;;;24.20;63.20;;;;;;5073943;28;19935;-78
2022/07/09 06:23:08;;;;;;;;;;;24.30;63.00;;;;;;5073412;28;19917;-79
2022/07/09 06:25:34;;;;;;;;;;;24.30;62.90;;;;;;5073645;28;19908;-79
2022/07/09 06:27:59;;;;;;;;;;;24.40;62.80;;;;;;5073137;28;19909;-78
2022/07/09 06:30:25;;;;;;;;;;;24.50;62.70;;;;;;5073044;28;19909;-78
2022/07/09 06:32:51;;;;;;;;;;;24.50;62.40;;;;;;5073465;28;19932;-78
2022/07/09 06:35:17;;;;;;;;;;;24.50;62.40;;;;;;5073476;28;19912;-78
2022/07/09 06:37:42;;;;;;;;;;;24.60;62.30;;;;;;5073145;28;20066;-79
2022/07/09 06:40:08;;;;;;;;;;;24.50;62.10;;;;;;5074672;28;19913;-78
2022/07/09 06:42:34;;;;;;;;;;;24.40;62.20;;;;;;5073474;28;19920;-80
2022/07/09 06:44:59;;;;;;;;;;;24.40;62.40;;;;;;5072816;28;19923;-79
2022/07/09 06:47:25;;;;;;;;;;;24.40;62.50;;;;;;5073547;28;20286;-79
2022/07/09 06:49:50;;;;;;;;;;;24.30;62.50;;;;;;5077335;28;20274;-79
2022/07/09 06:52:16;;;;;;;;;;;24.30;62.70;;;;;;5076418;28;20338;-79
2022/07/09 06:54:41;;;;;;;;;;;24.20;62.70;;;;;;5079446;28;19944;-78
2022/07/09 06:57:09;;;;;;;;;;;24.20;62.70;;;;;;5077325;28;20362;-78
2022/07/09 06:59:34;;;;;;;;;;;24.30;62.80;;;;;;5076616;28;19913;-78
2022/07/09 07:02:00;;;;;;;;;;;24.30;62.70;;;;;;5059478;28;19982;-77
2022/07/09 07:04:26;;;;;;;;;;;24.40;62.80;;;;;;5077360;28;20290;-77
2022/07/09 07:06:52;;;;;;;;;;;24.50;62.60;;;;;;5076990;28;19908;-78
2022/07/09 07:09:18;;;;;;;;;;;24.60;62.50;;;;;;5076623;28;19916;-78
2022/07/09 07:11:44;;;;;;;;;;;24.70;62.40;;;;;;5075489;28;19909;-78
2022/07/09 07:14:10;;;;;;;;;;;24.70;62.20;;;;;;5075950;28;19947;-78
2022/07/09 07:16:35;;;;;;;;;;;24.60;62.50;;;;;;5076635;28;19944;-78
2022/07/09 07:19:01;;;;;;;;;;;24.30;62.80;;;;;;5059077;28;19915;-78
2022/07/09 07:21:26;;;;;;;;;;;24.30;62.90;;;;;;5076144;28;20290;-79
2022/07/09 07:23:52;;;;;;;;;;;24.20;63.20;;;;;;5076345;28;20007;-78
2022/07/09 07:26:18;;;;;;;;;;;24.30;63.00;;;;;;5076292;28;19912;-80
2022/07/09 07:28:43;;;;;;;;;;;24.30;63.10;;;;;;5076037;28;20018;-78
2022/07/09 07:31:09;;;;;;;;;;;24.40;63.00;;;;;;5076304;28;19982;-78
2022/07/09 07:33:34;;;;;;;;;;;24.40;63.10;;;;;;5076164;28;19908;-78
2022/07/09 07:36:00;;;;;;;;;;;24.40;63.00;;;;;;5076062;28;19916;-76
2022/07/09 07:38:27;;;;;;;;;;;24.40;62.90;;;;;;5076659;28;20003;-78
2022/07/09 07:40:53;;;;;;;;;;;24.40;63.00;;;;;;5076423;28;20396;-77
2022/07/09 07:43:19;;;;;;;;;;;24.40;63.00;;;;;;5058575;28;20329;-79
2022/07/09 07:45:44;;;;;;;;;;;24.40;63.20;;;;;;5076796;28;19927;-77
2022/07/09 07:48:10;;;;;;;;;;;24.40;63.10;;;;;;5076044;28;19912;-77
2022/07/09 07:50:38;;;;;;;;;;;24.30;63.10;;;;;;5076007;28;19909;-79
2022/07/09 07:53:05;;;;;;;;;;;24.20;63.60;;;;;;5057957;28;20362;-79
2022/07/09 07:55:30;;;;;;;;;;;24.20;63.60;;;;;;5075972;28;19954;-78
2022/07/09 07:57:56;;;;;;;;;;;24.20;63.90;;;;;;5075861;28;19912;-78
2022/07/09 08:00:22;;;;;;;;;;;24.20;64.00;;;;;;5075096;28;19996;-77
2022/07/09 08:02:47;;;;;;;;;;;24.20;64.00;;;;;;5077850;28;19909;-81
2022/07/09 08:05:13;;;;;;;;;;;24.30;64.00;;;;;;5076936;28;19919;-78
2022/07/09 08:07:39;;;;;;;;;;;24.40;63.60;;;;;;5075433;28;19908;-78
2022/07/09 08:10:05;;;;;;;;;;;24.40;63.40;;;;;;5057647;28;20270;-78
2022/07/09 08:12:30;;;;;;;;;;;24.50;63.20;;;;;;5075713;28;20401;-79
2022/07/09 08:14:56;;;;;;;;;;;24.60;63.10;;;;;;5075688;28;19912;-78
2022/07/09 08:17:22;;;;;;;;;;;24.60;62.70;;;;;;5076029;28;19924;-78
2022/07/09 08:19:47;;;;;;;;;;;24.70;62.40;;;;;;5075514;28;19908;-78
2022/07/09 08:22:13;;;;;;;;;;;24.70;62.10;;;;;;5056919;28;19958;-78
2022/07/09 08:24:39;;;;;;;;;;;24.70;62.10;;;;;;5075434;28;19993;-79
2022/07/09 08:27:04;;;;;;;;;;;24.70;62.10;;;;;;5075252;28;19914;-79
2022/07/09 08:29:30;;;;;;;;;;;24.70;61.80;;;;;;5074958;28;20007;-78
2022/07/09 08:31:55;;;;;;;;;;;24.80;62.00;;;;;;5057371;28;19943;-78
2022/07/09 08:34:21;;;;;;;;;;;24.90;61.90;;;;;;5056837;28;19908;-78
2022/07/09 08:36:47;;;;;;;;;;;24.90;61.80;;;;;;5074581;28;20015;-78
2022/07/09 08:39:12;;;;;;;;;;;25.00;61.70;;;;;;5075969;28;20015;-78
2022/07/09 08:41:38;;;;;;;;;;;25.00;61.50;;;;;;5075311;28;19915;-78
2022/07/09 08:44:04;;;;;;;;;;;25.10;61.60;;;;;;5074377;28;19923;-76
2022/07/09 08:46:31;;;;;;;;;;;25.20;61.10;;;;;;5075327;28;19967;-78
2022/07/09 08:48:58;;;;;;;;;;;25.30;61.30;;;;;;5075294;28;19916;-79
2022/07/09 08:51:23;;;;;;;;;;;25.30;61.20;;;;;;5074164;28;19908;-78
2022/07/09 08:53:49;;;;;;;;;;;25.40;60.90;;;;;;5074400;28;19915;-78
2022/07/09 08:56:15;;;;;;;;;;;25.40;60.90;;;;;;5074719;28;19999;-79
2022/07/09 08:58:40;;;;;;;;;;;25.50;60.70;;;;;;5074383;28;19915;-78
2022/07/09 09:01:06;;;;;;;;;;;25.50;60.60;;;;;;5074780;28;19912;-79
2022/07/09 09:03:32;;;;;;;;;;;25.60;60.40;;;;;;5056840;28;20260;-78
2022/07/09 09:06:02;;;;;;;;;;;25.60;60.20;;;;;;5056204;28;19908;-77
2022/07/09 09:08:33;;;;;;;;;;;25.60;60.10;;;;;;5074455;28;19909;-78
2022/07/09 09:10:58;;;;;;;;;;;25.60;59.80;;;;;;5055974;28;19908;-79
2022/07/09 09:13:24;;;;;;;;;;;25.60;59.70;;;;;;5075693;28;19995;-77
2022/07/09 09:15:49;;;;;;;;;;;25.60;59.30;;;;;;5074372;28;19908;-77
2022/07/09 09:18:15;;;;;;;;;;;25.60;59.60;;;;;;5074255;28;19951;-79
2022/07/09 09:20:44;;;;;;;;;;;25.60;59.60;;;;;;5074032;28;19915;-79
2022/07/09 09:23:15;;;;;;;;;;;25.70;59.80;;;;;;5073935;28;19916;-79
2022/07/09 09:25:41;;;;;;;;;;;25.70;59.20;;;;;;5074412;28;19909;-78
2022/07/09 09:28:07;;;;;;;;;;;25.70;59.50;;;;;;5073576;28;19919;-78
2022/07/09 09:30:40;;;;;;;;;;;25.70;58.90;;;;;;5074132;28;19908;-77
2022/07/09 09:33:05;;;;;;;;;;;25.70;59.40;;;;;;5073857;28;19909;-77
2022/07/09 09:35:35;;;;;;;;;;;25.70;59.20;;;;;;5073477;28;19908;-77
2022/07/09 09:38:00;;;;;;;;;;;25.70;59.00;;;;;;5073870;28;19928;-78
2022/07/09 09:40:28;;;;;;;;;;;25.80;58.80;;;;;;5055647;28;20469;-77
2022/07/09 09:42:56;;;;;;;;;;;25.80;58.90;;;;;;5073531;28;19909;-79
2022/07/09 09:45:22;;;;;;;;;;;25.90;58.40;;;;;;5074095;28;19920;-77
2022/07/09 09:47:48;;;;;;;;;;;25.90;58.40;;;;;;5074153;28;19912;-78
2022/07/09 09:50:21;;;;;;;;;;;26.00;58.30;;;;;;5072504;28;19948;-78
2022/07/09 09:52:47;;;;;;;;;;;26.00;58.50;;;;;;5073609;28;19920;-78
2022/07/09 09:55:14;;;;;;;;;;;26.00;58.30;;;;;;5073703;28;19908;-78
2022/07/09 09:57:40;;;;;;;;;;;26.10;58.60;;;;;;5073177;28;20309;-79
2022/07/09 10:00:06;;;;;;;;;;;26.10;58.20;;;;;;5073473;28;19908;-79
2022/07/09 10:02:32;;;;;;;;;;;26.10;58.20;;;;;;5073579;28;20357;-77
2022/07/09 10:04:59;;;;;;;;;;;26.20;58.10;;;;;;5072902;28;20061;-78
2022/07/09 10:07:25;;;;;;;;;;;26.30;58.00;;;;;;5055653;28;20289;-78
2022/07/09 10:09:54;;;;;;;;;;;26.40;57.80;;;;;;5055585;28;19999;-78
2022/07/09 10:12:30;;;;;;;;;;;26.50;57.40;;;;;;5074007;28;19909;-77
2022/07/09 10:14:56;;;;;;;;;;;26.50;57.60;;;;;;5074090;28;19956;-77
2022/07/09 10:17:24;;;;;;;;;;;26.60;57.10;;;;;;5073524;28;19952;-78
2022/07/09 10:19:57;;;;;;;;;;;26.70;56.70;;;;;;5072903;28;20362;-78
2022/07/09 10:22:33;;;;;;;;;;;26.70;56.90;;;;;;5056296;28;20321;-78
2022/07/09 10:24:59;;;;;;;;;;;26.80;55.80;;;;;;5073506;28;20365;-78
2022/07/09 10:27:24;;;;;;;;;;;26.90;55.80;;;;;;5073181;28;19912;-77
2022/07/09 10:29:50;;;;;;;;;;;27.00;55.60;;;;;;5072163;28;20404;-78
2022/07/09 10:32:25;;;;;;;;;;;27.10;55.90;;;;;;5073245;28;20421;-78
2022/07/09 10:34:55;;;;;;;;;;;27.10;55.50;;;;;;5073012;28;19916;-78
2022/07/09 10:37:41;;;;;;;;;;;27.10;54.70;;;;;;5073276;28;19914;-78
2022/07/09 10:40:13;;;;;;;;;;;27.20;55.50;;;;;;5073603;28;19960;-77
2022/07/09 10:42:39;;;;;;;;;;;27.20;55.50;;;;;;5072859;28;20418;-78
2022/07/09 10:45:23;;;;;;;;;;;27.20;55.20;;;;;;5055668;28;19917;-77
2022/07/09 10:47:50;;;;;;;;;;;27.30;55.20;;;;;;5073426;28;20007;-77
2022/07/09 10:50:15;;;;;;;;;;;27.30;53.50;;;;;;5054309;28;19995;-77
2022/07/09 10:52:43;;;;;;;;;;;27.30;54.80;;;;;;5072889;28;19960;-78
2022/07/09 10:55:08;;;;;;;;;;;27.40;55.30;;;;;;5072885;28;19916;-78
2022/07/09 10:57:37;;;;;;;;;;;27.50;55.00;;;;;;5073230;28;19909;-77
2022/07/09 11:00:03;;;;;;;;;;;27.50;54.40;;;;;;5072706;28;20421;-79
2022/07/09 11:02:29;;;;;;;;;;;27.60;54.20;;;;;;5073029;28;20317;-78
2022/07/09 11:04:54;;;;;;;;;;;27.60;55.00;;;;;;5054556;28;19912;-78
2022/07/09 11:07:23;;;;;;;;;;;27.60;54.30;;;;;;5072740;28;19920;-78
2022/07/09 11:09:50;;;;;;;;;;;27.60;53.90;;;;;;5055349;28;19908;-78
2022/07/09 11:12:19;;;;;;;;;;;27.60;53.40;;;;;;5072363;28;20355;-75
2022/07/09 11:14:45;;;;;;;;;;;27.60;53.50;;;;;;5072975;28;20255;-78
2022/07/09 11:17:14;;;;;;;;;;;27.50;53.40;;;;;;5073072;28;20379;-78
2022/07/09 11:19:39;;;;;;;;;;;27.40;54.40;;;;;;5072361;28;19956;-78
2022/07/09 11:22:05;;;;;;;;;;;27.40;54.60;;;;;;5072534;28;20274;-77
2022/07/09 11:24:31;;;;;;;;;;;27.40;53.10;;;;;;5072944;28;20374;-78
2022/07/09 11:27:01;;;;;;;;;;;27.40;53.70;;;;;;5072354;28;19916;-78
2022/07/09 11:29:26;;;;;;;;;;;27.40;53.70;;;;;;5073267;28;19912;-77
2022/07/09 11:31:52;;;;;;;;;;;27.30;53.70;;;;;;5074501;28;19916;-78
2022/07/09 11:34:19;;;;;;;;;;;27.30;52.70;;;;;;5073439;28;19920;-78
2022/07/09 11:36:50;;;;;;;;;;;27.30;53.40;;;;;;5076354;28;19913;-77
2022/07/09 11:39:21;;;;;;;;;;;27.30;53.40;;;;;;5076477;28;20317;-78
2022/07/09 11:41:47;;;;;;;;;;;27.20;53.80;;;;;;5075955;28;19935;-78
2022/07/09 11:44:22;;;;;;;;;;;27.20;53.20;;;;;;5075967;28;20007;-78
2022/07/09 11:47:03;;;;;;;;;;;27.10;53.40;;;;;;5075919;28;19951;-78
2022/07/09 11:49:32;;;;;;;;;;;27.10;52.80;;;;;;5075935;28;19908;-78
2022/07/09 11:51:58;;;;;;;;;;;27.20;53.40;;;;;;5075431;28;19908;-76
2022/07/09 11:54:27;;;;;;;;;;;27.20;54.50;;;;;;5075874;28;19908;-79
2022/07/09 11:56:52;;;;;;;;;;;27.20;53.90;;;;;;5075637;28;19908;-78
2022/07/09 11:59:34;;;;;;;;;;;27.30;54.00;;;;;;5075766;28;20354;-77
2022/07/09 12:02:00;;;;;;;;;;;27.30;53.10;;;;;;5058209;28;20002;-76
2022/07/09 12:04:30;;;;;;;;;;;27.40;53.70;;;;;;5075402;28;19912;-79
2022/07/09 12:06:55;;;;;;;;;;;27.50;52.70;;;;;;5075732;28;19919;-78
2022/07/09 12:09:31;;;;;;;;;;;27.50;53.00;;;;;;5075618;28;19909;-78
2022/07/09 12:11:57;;;;;;;;;;;27.60;53.50;;;;;;5075146;28;19913;-76
2022/07/09 12:14:22;;;;;;;;;;;27.60;53.60;;;;;;5075515;28;19992;-76
2022/07/09 12:16:48;;;;;;;;;;;27.60;52.80;;;;;;5075817;28;19909;-77
2022/07/09 12:19:14;;;;;;;;;;;27.60;52.30;;;;;;5075232;28;19908;-77
2022/07/09 12:21:39;;;;;;;;;;;27.60;52.00;;;;;;5057365;28;19950;-77
2022/07/09 12:24:05;;;;;;;;;;;27.50;52.70;;;;;;5075110;28;19913;-76
2022/07/09 12:26:31;;;;;;;;;;;27.50;53.10;;;;;;5075015;28;19912;-77
2022/07/09 12:28:56;;;;;;;;;;;27.50;53.10;;;;;;5075430;28;19913;-77
2022/07/09 12:31:22;;;;;;;;;;;27.40;52.20;;;;;;5075418;28;19909;-76
2022/07/09 12:33:47;;;;;;;;;;;27.40;53.20;;;;;;5074867;28;19909;-77
2022/07/09 12:36:16;;;;;;;;;;;27.40;52.40;;;;;;5075397;28;19955;-77
2022/07/09 12:38:42;;;;;;;;;;;27.30;53.40;;;;;;5075773;28;19921;-77
2022/07/09 12:41:07;;;;;;;;;;;27.40;52.90;;;;;;5076561;28;20277;-78
2022/07/09 12:43:33;;;;;;;;;;;27.40;53.10;;;;;;5076091;28;19913;-79
2022/07/09 12:45:58;;;;;;;;;;;27.40;53.30;;;;;;5073995;28;19923;-78
2022/07/09 12:48:24;;;;;;;;;;;27.50;52.40;;;;;;5074966;28;19912;-77
2022/07/09 12:50:49;;;;;;;;;;;27.50;52.90;;;;;;5075049;28;20070;-74
2022/07/09 12:53:15;;;;;;;;;;;27.50;53.20;;;;;;5074899;28;20074;-77
2022/07/09 12:55:41;;;;;;;;;;;27.50;53.50;;;;;;5074281;28;19909;-78
2022/07/09 12:58:06;;;;;;;;;;;27.40;53.30;;;;;;5074273;28;20010;-78
2022/07/09 13:00:32;;;;;;;;;;;27.40;53.60;;;;;;5057030;28;19908;-78
2022/07/09 13:02:57;;;;;;;;;;;27.40;53.80;;;;;;5056548;28;19919;-78
2022/07/09 13:05:23;;;;;;;;;;;27.50;53.20;;;;;;5074684;28;19913;-78
2022/07/09 13:07:48;;;;;;;;;;;27.60;53.60;;;;;;5056636;28;19959;-78
2022/07/09 13:10:14;;;;;;;;;;;27.60;53.70;;;;;;5074109;28;19909;-77
2022/07/09 13:12:39;;;;;;;;;;;27.70;53.80;;;;;;5075060;28;19916;-77
2022/07/09 13:15:05;;;;;;;;;;;27.80;53.40;;;;;;5075038;28;19909;-77
2022/07/09 13:17:31;;;;;;;;;;;27.90;53.30;;;;;;5056387;28;20003;-78
2022/07/09 13:19:56;;;;;;;;;;;28.00;52.80;;;;;;5074637;28;19912;-78
2022/07/09 13:22:22;;;;;;;;;;;28.10;52.90;;;;;;5074282;28;19908;-80
2022/07/09 13:24:47;;;;;;;;;;;28.20;52.50;;;;;;5074683;28;19958;-78
2022/07/09 13:27:13;;;;;;;;;;;28.20;52.50;;;;;;5075271;28;19935;-79
2022/07/09 13:29:40;;;;;;;;;;;28.30;52.40;;;;;;5074870;28;20054;-78
2022/07/09 13:32:05;;;;;;;;;;;28.40;52.10;;;;;;5072507;28;20360;-78
2022/07/09 13:34:31;;;;;;;;;;;28.50;52.10;;;;;;5056859;28;20011;-79
2022/07/09 13:36:56;;;;;;;;;;;28.60;51.90;;;;;;5074042;28;19982;-77
2022/07/09 13:39:22;;;;;;;;;;;28.80;51.90;;;;;;5037436;28;20024;-78
2022/07/09 13:41:47;;;;;;;;;;;29.00;51.50;;;;;;5053855;28;20294;-78
2022/07/09 13:44:13;;;;;;;;;;;29.40;50.90;;;;;;5053698;28;19919;-78
2022/07/09 13:46:39;;;;;;;;;;;29.80;50.40;;;;;;5035936;28;19917;-78
2022/07/09 13:49:04;;;;;;;;;;;30.00;49.00;;;;;;5056570;28;19919;-78
2022/07/09 13:51:30;;;;;;;;;;;30.40;49.50;;;;;;5054200;28;19955;-78
2022/07/09 13:53:55;;;;;;;;;;;30.80;50.20;;;;;;5053559;28;19963;-79
2022/07/09 13:56:21;;;;;;;;;;;31.20;50.10;;;;;;5053814;28;20330;-78
2022/07/09 13:58:47;;;;;;;;;;;31.60;49.70;;;;;;5055246;28;19919;-78
2022/07/09 14:01:12;;;;;;;;;;;32.10;47.30;;;;;;5054153;28;19909;-78
2022/07/09 14:03:38;;;;;;;;;;;32.50;47.70;;;;;;5053961;28;19913;-78
2022/07/09 14:06:03;;;;;;;;;;;33.00;46.20;;;;;;5053572;28;19983;-78
2022/07/09 14:08:29;;;;;;;;;;;33.30;48.50;;;;;;5053456;28;19963;-77
2022/07/09 14:10:58;;;;;;;;;;;33.50;46.20;;;;;;5053561;28;20378;-78